• Join FlightAware (Why Join?)
  • Login
  • US Flag 
06:08PM EDT


 

Airport Tracker/Info


-or-


 

Live Flight TrackerFlight Track Log ✈ N437FA ✈ 16-Jun-2013 ✈ KWVL - KFRG

Flight Track Log - Related Links

Times and Time Zones

All times are in EDT time to prevent confusion due to time zone crossing. See the N437FA flight status page for this flight to view local times or setup timezone preferences in your user account.

Time Position Orientation Groundspeed Altitude Reporting Facility
EDT Latitude Longitude Course Direction KTS MPH feet Rate Location/Type
11:00AM 42.0061 -72.1522 217° Southwest 105 121 4,500  Level Boston Center
11:00AM 41.9894 -72.1692 217° Southwest 104 120 4,500  Level Boston Center
11:01AM 41.9667 -72.1917 216° Southwest 104 120 4,500  Level Boston Center
11:02AM 41.9439 -72.2139 216° Southwest 102 117 4,500  Level Boston Center
11:04AM 41.9167 -72.2447 220° Southwest 104 120 4,500  Level Boston Center
11:04AM 41.8958 -72.2644 215° Southwest 103 119 4,500  Level Boston Center
11:05AM 41.8731 -72.2894 219° Southwest 103 119 4,500  Level Boston Center
11:06AM 41.8500 -72.3119 216° Southwest 103 119 4,500  Level Boston Center
11:08AM 41.8294 -72.3342 219° Southwest 102 117 4,500  Level Boston Center
11:09AM 41.7981 -72.3622 214° Southwest 103 119 4,500  Level Boston Center
11:10AM 41.7772 -72.3844 219° Southwest 103 119 4,500  Level Boston Center
11:11AM 41.7544 -72.4094 219° Southwest 105 121 4,500  Level Boston Center
11:12AM 41.7294 -72.4344 217° Southwest 117 135 4,500  Level Boston Center
11:13AM 41.7044 -72.4539 210° Southwest 112 129 4,500  Level Boston Center
11:14AM 41.6836 -72.4733 215° Southwest 107 123 4,500  Level Boston Center
11:14AM 41.6625 -72.4956 218° Southwest 106 122 4,500  Level Boston Center
11:16AM 41.6292 -72.5289 217° Southwest 105 121 4,500  Level Boston Center
11:17AM 41.6106 -72.5511 222° Southwest 104 120 4,500  Level Boston Center
11:18AM 41.5833 -72.5761 214° Southwest 101 116 4,500  Level Boston Center
11:21AM 41.5167 -72.6333 213° Southwest 105 121 4,500  Level New York TRACON
11:23AM 41.5114 -72.6921 263° West  Level FlightAware Approximate
11:24AM 41.4500 -72.7167 263° West 104 120 4,500  Level New York TRACON
11:25AM 41.4333 -72.7333 217° Southwest 102 117 4,500  Level New York TRACON
11:26AM 41.4000 -72.7500 201° Southwest 106 122 4,500  Level New York TRACON
11:27AM 41.3833 -72.7833 236° Southwest 109 125 4,500  Level New York TRACON
11:28AM 41.3500 -72.8000 201° Southwest 104 120 4,500  Level New York TRACON
11:29AM 41.3333 -72.8167 217° Southwest 110 127 4,500  Level New York TRACON
11:30AM 41.3167 -72.8500 236° Southwest 104 120 4,500  Level New York TRACON
11:31AM 41.2833 -72.8667 201° Southwest 104 120 4,500  Level New York TRACON
11:32AM 41.2667 -72.8833 217° Southwest 106 122 4,500  Level New York TRACON
11:33AM 41.2333 -72.9167 217° Southwest 107 123 4,500  Level New York TRACON
11:34AM 41.2167 -72.9333 217° Southwest 104 120 4,500  Level New York TRACON
11:35AM 41.2000 -72.9667 236° Southwest 105 121 4,500  Level New York TRACON
11:36AM 41.1667 -72.9833 201° Southwest 106 122 4,500  Level New York TRACON
11:37AM 41.1500 -73.0000 217° Southwest 107 123 4,500  Level New York TRACON
11:38AM 41.1167 -73.0333 217° Southwest 106 122 4,500  Level New York TRACON
11:39AM 41.1000 -73.0500 217° Southwest 106 122 4,500  Level New York TRACON
11:40AM 41.0833 -73.0833 236° Southwest 107 123 4,500  Level New York TRACON
11:41AM 41.0500 -73.1000 201° Southwest 102 117 4,500  Level New York TRACON
11:42AM 41.0333 -73.1167 217° Southwest 104 120 4,500  Level New York TRACON
11:43AM 41.0167 -73.1500 236° Southwest 102 117 4,500  Level New York TRACON
11:45AM 40.9765 -73.1813 210° Southwest  Level FlightAware Approximate
11:52AM 40.8298 -73.2985 210° Southwest  Level FlightAware Approximate
11:53AM 40.8085 -73.3145 210° Southwest  Level FlightAware Approximate
11:54AM 40.7872 -73.3305 210° Southwest  Level FlightAware Approximate
11:55AM 40.7673 -73.3494 217° Southwest  Level FlightAware Approximate
11:56AM 40.7478 -73.3689 217° Southwest  Level FlightAware Approximate
11:57AM 40.7282 -73.3884 217° Southwest  Level FlightAware Approximate
11:58AM 40.7167 -73.4000 217° Southwest  Level FlightAware Approximate
11:59AM 40.7288 -73.4134 217° Southwest  Level Estimated
12:00PM 40.7288 -73.4134 217° Southwest  Level Estimated
12:01PM 40.7288 -73.4134 217° Southwest  Level Estimated
12:02PM 40.7288 -73.4134 217° Southwest  Level Estimated
12:03PM 40.7288 -73.4134 217° Southwest  Level Estimated
12:04PM 40.7288 -73.4134 217° Southwest  Level Estimated
12:05PM 40.7288 -73.4134 217° Southwest  Level Estimated
12:06PM 40.7288 -73.4134 217° Southwest  Level Estimated
12:07PM 40.7288 -73.4134 217° Southwest  Level Estimated
12:08PM 40.7288 -73.4134 217° Southwest  Level Estimated
12:09PM 40.7288 -73.4134 217° Southwest  Level Estimated